createdAt,value
2023-01-06T00:01:11.846Z,15.24
2023-01-06T00:03:39.384Z,15.18
2023-01-06T00:06:08.460Z,15.14
2023-01-06T00:08:40.211Z,15.08
2023-01-06T00:11:08.571Z,15.04
2023-01-06T00:13:36.355Z,15.05
2023-01-06T00:16:04.846Z,15.05
2023-01-06T00:18:32.695Z,14.97
2023-01-06T00:21:00.853Z,15.00
2023-01-06T00:23:28.204Z,14.98
2023-01-06T00:25:57.086Z,14.95
2023-01-06T00:28:24.459Z,14.90
2023-01-06T00:30:53.211Z,14.90
2023-01-06T00:33:20.858Z,14.86
2023-01-06T00:35:48.471Z,14.91
2023-01-06T00:38:15.833Z,14.93
2023-01-06T00:40:43.078Z,14.82
2023-01-06T00:43:13.336Z,14.72
2023-01-06T00:45:40.508Z,14.70
2023-01-06T00:48:12.831Z,14.69
2023-01-06T00:50:42.934Z,14.69
2023-01-06T00:53:10.251Z,14.70
2023-01-06T00:55:40.751Z,14.67
2023-01-06T00:58:09.625Z,14.70
2023-01-06T01:00:39.433Z,14.65
2023-01-06T01:03:07.073Z,14.64
2023-01-06T01:05:34.640Z,14.67
2023-01-06T01:08:02.089Z,14.58
2023-01-06T01:10:32.294Z,14.53
2023-01-06T01:13:02.403Z,14.50
2023-01-06T01:15:30.222Z,14.44
2023-01-06T01:17:57.441Z,14.45
2023-01-06T01:20:24.592Z,14.47
2023-01-06T01:22:51.902Z,14.40
2023-01-06T01:25:19.647Z,14.41
2023-01-06T01:27:47.037Z,14.37
2023-01-06T01:30:14.537Z,14.39
2023-01-06T01:32:41.974Z,14.32
2023-01-06T01:35:09.610Z,14.33
2023-01-06T01:37:43.496Z,14.25
2023-01-06T01:40:11.415Z,14.29
2023-01-06T01:42:39.455Z,14.14
2023-01-06T01:45:08.010Z,14.18
2023-01-06T01:47:39.914Z,14.10
2023-01-06T01:50:17.688Z,14.11
2023-01-06T01:52:47.721Z,14.12
2023-01-06T01:55:15.870Z,14.04
2023-01-06T01:58:05.935Z,14.03
2023-01-06T02:00:33.950Z,13.97
2023-01-06T02:03:06.611Z,13.99
2023-01-06T02:05:34.448Z,14.03
2023-01-06T02:08:10.218Z,13.96
2023-01-06T02:10:37.825Z,13.96
2023-01-06T02:13:04.807Z,13.90
2023-01-06T02:15:32.818Z,13.97
2023-01-06T02:18:00.157Z,13.93
2023-01-06T02:20:27.132Z,13.91
2023-01-06T02:23:11.922Z,13.83
2023-01-06T02:26:09.305Z,13.86
2023-01-06T02:28:36.331Z,13.74
2023-01-06T02:31:16.694Z,13.71
2023-01-06T02:34:10.275Z,13.67
2023-01-06T02:36:52.402Z,13.62
2023-01-06T02:39:40.209Z,13.66
2023-01-06T02:42:07.692Z,13.62
2023-01-06T02:44:37.867Z,13.57
2023-01-06T02:47:11.549Z,13.53
2023-01-06T02:49:39.882Z,13.47
2023-01-06T02:52:25.542Z,13.32
2023-01-06T02:54:59.225Z,13.37
2023-01-06T02:57:47.421Z,13.32
2023-01-06T03:00:35.672Z,13.30
2023-01-06T03:03:05.600Z,13.28
2023-01-06T03:05:33.434Z,13.29
2023-01-06T03:08:02.993Z,13.23
2023-01-06T03:10:30.974Z,13.23
2023-01-06T03:13:02.221Z,13.15
2023-01-06T03:15:30.341Z,13.20
2023-01-06T03:17:57.403Z,13.11
2023-01-06T03:20:24.574Z,13.07
2023-01-06T03:22:51.512Z,13.08
2023-01-06T03:25:18.721Z,13.12
2023-01-06T03:27:49.113Z,13.12
2023-01-06T03:30:16.762Z,13.07
2023-01-06T03:32:48.074Z,13.09
2023-01-06T03:35:45.218Z,13.04
2023-01-06T03:38:22.711Z,12.97
2023-01-06T03:40:52.854Z,12.94
2023-01-06T03:43:19.942Z,12.95
2023-01-06T03:46:01.166Z,12.94
2023-01-06T03:48:36.339Z,12.84
2023-01-06T03:51:06.544Z,12.89
2023-01-06T03:53:33.754Z,12.91
2023-01-06T03:56:20.027Z,12.88
2023-01-06T03:58:50.337Z,12.88
2023-01-06T04:01:17.657Z,12.97
2023-01-06T04:03:48.871Z,12.89
2023-01-06T04:06:16.111Z,12.69
2023-01-06T04:08:43.705Z,12.74
2023-01-06T04:11:31.074Z,12.78
2023-01-06T04:13:58.058Z,12.79
2023-01-06T04:16:25.182Z,12.70
2023-01-06T04:18:52.626Z,12.71
2023-01-06T04:21:22.107Z,12.69
2023-01-06T04:23:49.135Z,12.64
2023-01-06T04:26:16.213Z,12.55
2023-01-06T04:28:47.752Z,12.54
2023-01-06T04:31:18.421Z,12.33
2023-01-06T04:33:47.344Z,12.41
2023-01-06T04:36:15.791Z,12.43
2023-01-06T04:38:47.962Z,12.45
2023-01-06T04:41:18.002Z,12.56
2023-01-06T04:43:45.039Z,12.57
2023-01-06T04:46:13.263Z,12.51
2023-01-06T04:48:40.278Z,12.53
2023-01-06T04:51:08.606Z,12.47
2023-01-06T04:53:36.842Z,12.54
2023-01-06T04:56:04.740Z,12.58
2023-01-06T04:58:38.059Z,12.58
2023-01-06T05:01:09.653Z,12.57
2023-01-06T05:03:37.239Z,12.57
2023-01-06T05:06:05.434Z,12.61
2023-01-06T05:08:32.574Z,12.57
2023-01-06T05:11:00.794Z,12.56
2023-01-06T05:13:28.270Z,12.59
2023-01-06T05:15:55.372Z,12.49
2023-01-06T05:18:24.652Z,12.51
2023-01-06T05:20:55.201Z,12.48
2023-01-06T05:23:22.479Z,12.42
2023-01-06T05:25:52.676Z,12.46
2023-01-06T05:28:19.812Z,12.34
2023-01-06T05:30:47.501Z,12.41
2023-01-06T05:33:15.028Z,12.33
2023-01-06T05:35:43.375Z,12.26
2023-01-06T05:38:10.422Z,12.25
2023-01-06T05:40:39.922Z,12.19
2023-01-06T05:43:11.022Z,12.18
2023-01-06T05:45:38.079Z,12.25
2023-01-06T05:48:05.594Z,12.28
2023-01-06T05:50:32.545Z,12.15
2023-01-06T05:53:01.233Z,12.15
2023-01-06T05:55:36.768Z,12.00
2023-01-06T05:58:04.006Z,12.12
2023-01-06T06:00:36.978Z,12.02
2023-01-06T06:03:04.931Z,12.03
2023-01-06T06:05:34.807Z,11.98
2023-01-06T06:08:09.290Z,11.92
2023-01-06T06:10:36.283Z,11.84
2023-01-06T06:13:03.291Z,11.82
2023-01-06T06:15:30.270Z,11.86
2023-01-06T06:17:57.254Z,11.78
2023-01-06T06:20:25.755Z,11.76
2023-01-06T06:22:56.606Z,11.79
2023-01-06T06:25:23.645Z,11.75
2023-01-06T06:27:50.739Z,11.80
2023-01-06T06:30:17.870Z,11.75
2023-01-06T06:32:44.940Z,11.65
2023-01-06T06:35:14.755Z,11.72
2023-01-06T06:37:43.821Z,11.73
2023-01-06T06:40:13.824Z,11.76
2023-01-06T06:42:40.862Z,11.77
2023-01-06T06:45:08.101Z,11.67
2023-01-06T06:47:37.165Z,11.65
2023-01-06T06:50:06.470Z,11.64
2023-01-06T06:52:33.819Z,11.64
2023-01-06T06:55:00.838Z,11.65
2023-01-06T06:57:28.292Z,11.63
2023-01-06T06:59:58.104Z,11.62
2023-01-06T07:02:28.637Z,11.55
2023-01-06T07:04:55.981Z,11.54
2023-01-06T07:07:23.370Z,11.52
2023-01-06T07:09:51.105Z,11.59
2023-01-06T07:12:18.689Z,11.46
2023-01-06T07:14:57.757Z,11.51
2023-01-06T07:17:29.319Z,11.42
2023-01-06T07:19:57.206Z,11.27
2023-01-06T07:22:24.853Z,11.27
2023-01-06T07:24:52.344Z,11.25
2023-01-06T07:27:19.501Z,11.29
2023-01-06T07:29:49.488Z,11.39
2023-01-06T07:32:18.049Z,11.36
2023-01-06T07:34:45.349Z,11.30
2023-01-06T07:37:12.661Z,11.34
2023-01-06T07:39:40.211Z,11.39
2023-01-06T07:42:11.661Z,11.40
2023-01-06T07:44:39.692Z,11.45
2023-01-06T07:47:11.301Z,11.48
2023-01-06T07:49:41.841Z,11.43
2023-01-06T07:52:15.599Z,11.34
2023-01-06T07:54:46.639Z,11.31
2023-01-06T07:57:19.255Z,11.35
2023-01-06T07:59:49.626Z,11.45
2023-01-06T08:02:18.265Z,11.47
2023-01-06T08:05:00.328Z,11.47
2023-01-06T08:07:27.833Z,11.48
2023-01-06T08:09:55.143Z,11.46
2023-01-06T08:12:22.440Z,11.42
2023-01-06T08:14:52.753Z,11.52
2023-01-06T08:17:19.762Z,11.60
2023-01-06T08:19:49.885Z,11.64
2023-01-06T08:22:19.224Z,11.73
2023-01-06T08:24:47.617Z,11.82
2023-01-06T08:27:14.692Z,11.88
2023-01-06T08:29:41.674Z,11.90
2023-01-06T08:32:10.741Z,11.91
2023-01-06T08:34:38.358Z,11.92
2023-01-06T08:37:05.449Z,11.92
2023-01-06T08:39:32.471Z,11.96
2023-01-06T08:41:59.545Z,11.96
2023-01-06T08:44:27.098Z,11.98
2023-01-06T08:46:54.180Z,12.05
2023-01-06T08:49:21.180Z,12.04
2023-01-06T08:51:48.113Z,12.10
2023-01-06T08:54:15.228Z,12.06
2023-01-06T08:56:43.790Z,12.14
2023-01-06T08:59:12.972Z,11.91
2023-01-06T09:01:40.060Z,12.32
2023-01-06T09:04:07.688Z,12.60
2023-01-06T09:06:34.948Z,12.83
2023-01-06T09:09:03.037Z,13.17
2023-01-06T09:11:33.241Z,13.55
2023-01-06T09:14:00.901Z,13.86
2023-01-06T09:16:28.137Z,14.22
2023-01-06T09:18:55.199Z,14.46
2023-01-06T09:21:25.897Z,14.77
2023-01-06T09:23:53.001Z,14.94
2023-01-06T09:26:21.869Z,15.30
2023-01-06T09:28:49.084Z,15.59
2023-01-06T09:31:18.333Z,16.09
2023-01-06T09:33:45.564Z,16.36
2023-01-06T09:36:12.561Z,16.81
2023-01-06T09:38:39.642Z,17.17
2023-01-06T09:41:19.387Z,17.41
2023-01-06T09:43:50.682Z,17.73
2023-01-06T09:46:20.138Z,18.05
2023-01-06T09:48:57.805Z,18.37
2023-01-06T09:51:28.952Z,18.56
2023-01-06T09:54:04.839Z,18.78
2023-01-06T09:56:32.592Z,19.14
2023-01-06T09:59:09.148Z,19.30
2023-01-06T10:01:45.652Z,19.49
2023-01-06T10:04:29.584Z,19.78
2023-01-06T10:07:16.636Z,20.09
2023-01-06T10:09:50.411Z,20.35
2023-01-06T10:12:35.982Z,20.53
2023-01-06T10:15:20.707Z,20.80
2023-01-06T10:18:08.550Z,21.08
2023-01-06T10:20:37.566Z,21.32
2023-01-06T10:23:04.768Z,21.54
2023-01-06T10:25:34.524Z,21.76
2023-01-06T10:28:22.825Z,21.95
2023-01-06T10:30:52.591Z,22.24
2023-01-06T10:33:40.831Z,22.41
2023-01-06T10:36:13.875Z,22.84
2023-01-06T10:38:51.824Z,23.09
2023-01-06T10:41:25.974Z,23.55
2023-01-06T10:43:55.372Z,23.73
2023-01-06T10:46:27.517Z,24.05
2023-01-06T10:48:54.596Z,24.28
2023-01-06T10:51:42.770Z,24.53
2023-01-06T10:54:25.142Z,24.82
2023-01-06T10:56:57.256Z,25.24
2023-01-06T10:59:26.662Z,25.30
2023-01-06T11:01:55.988Z,25.70
2023-01-06T11:04:25.552Z,25.88
2023-01-06T11:07:02.522Z,26.27
2023-01-06T11:09:44.388Z,26.58
2023-01-06T11:12:24.770Z,27.02
2023-01-06T11:15:04.939Z,27.10
2023-01-06T11:17:35.509Z,27.77
2023-01-06T11:20:09.300Z,28.01
2023-01-06T11:22:40.661Z,28.34
2023-01-06T11:25:19.871Z,28.62
2023-01-06T11:27:47.598Z,29.17
2023-01-06T11:30:28.721Z,29.61
2023-01-06T11:32:56.150Z,29.92
2023-01-06T11:35:28.420Z,29.87
2023-01-06T11:38:00.033Z,30.07
2023-01-06T11:40:29.387Z,30.38
2023-01-06T11:42:58.686Z,30.70
2023-01-06T11:45:36.610Z,30.71
2023-01-06T11:48:05.825Z,31.12
2023-01-06T11:50:32.823Z,31.54
2023-01-06T11:53:02.889Z,31.74
2023-01-06T11:55:30.924Z,32.01
2023-01-06T11:58:05.419Z,31.97
2023-01-06T12:00:38.974Z,32.19
2023-01-06T12:03:11.653Z,32.67
2023-01-06T12:05:39.529Z,32.63
2023-01-06T12:08:26.838Z,32.77
2023-01-06T12:10:57.064Z,32.67
2023-01-06T12:13:25.514Z,33.01
2023-01-06T12:15:57.923Z,32.66
2023-01-06T12:18:28.355Z,33.04
2023-01-06T12:21:01.339Z,33.34
2023-01-06T12:23:33.287Z,33.48
2023-01-06T12:26:05.695Z,33.70
2023-01-06T12:28:40.887Z,33.57
2023-01-06T12:31:20.574Z,33.55
2023-01-06T12:33:47.523Z,33.35
2023-01-06T12:36:35.405Z,33.60
2023-01-06T12:39:04.124Z,34.15
2023-01-06T12:41:49.829Z,34.02
2023-01-06T12:44:41.937Z,33.94
2023-01-06T12:47:12.028Z,33.86
2023-01-06T12:50:03.257Z,34.02
2023-01-06T12:52:41.069Z,33.42
2023-01-06T12:55:12.910Z,32.63
2023-01-06T12:57:57.600Z,33.15
2023-01-06T13:00:27.382Z,33.57
2023-01-06T13:03:03.594Z,32.39
2023-01-06T13:05:45.919Z,33.57
2023-01-06T13:08:17.081Z,33.37
2023-01-06T13:10:47.463Z,33.15
2023-01-06T13:13:32.334Z,33.35
2023-01-06T13:16:02.780Z,33.44
2023-01-06T13:18:29.712Z,33.47
2023-01-06T13:21:05.147Z,33.48
2023-01-06T13:23:51.436Z,33.36
2023-01-06T13:26:30.677Z,33.27
2023-01-06T13:29:16.867Z,33.24
2023-01-06T13:32:02.658Z,33.38
2023-01-06T13:34:34.871Z,33.00
2023-01-06T13:37:07.928Z,32.40
2023-01-06T13:39:43.247Z,32.50
2023-01-06T13:42:14.493Z,32.23
2023-01-06T13:44:42.735Z,31.75
2023-01-06T13:47:12.253Z,32.13
2023-01-06T13:49:41.223Z,32.18
2023-01-06T13:52:15.133Z,31.73
2023-01-06T13:54:42.097Z,31.45
2023-01-06T13:57:21.444Z,31.54
2023-01-06T14:00:14.605Z,31.46
2023-01-06T14:02:43.072Z,31.16
2023-01-06T14:05:22.511Z,31.03
2023-01-06T14:07:51.773Z,30.13
2023-01-06T14:10:36.899Z,30.74
2023-01-06T14:13:06.513Z,30.61
2023-01-06T14:15:38.194Z,29.57
2023-01-06T14:18:07.091Z,29.64
2023-01-06T14:20:38.436Z,29.08
2023-01-06T14:23:28.794Z,29.57
2023-01-06T14:25:57.306Z,29.30
2023-01-06T14:28:29.960Z,29.47
2023-01-06T14:31:15.608Z,29.61
2023-01-06T14:33:44.900Z,29.50
2023-01-06T14:36:16.480Z,28.82
2023-01-06T14:38:52.003Z,29.12
2023-01-06T14:41:24.974Z,28.78
2023-01-06T14:43:54.717Z,28.56
2023-01-06T14:46:25.618Z,28.59
2023-01-06T14:48:55.566Z,28.73
2023-01-06T14:51:22.916Z,28.42
2023-01-06T14:53:54.168Z,27.99
2023-01-06T14:56:22.880Z,28.07
2023-01-06T14:58:49.893Z,27.82
2023-01-06T15:01:25.082Z,27.70
2023-01-06T15:03:59.977Z,27.10
2023-01-06T15:06:28.300Z,27.11
2023-01-06T15:08:57.903Z,26.98
2023-01-06T15:11:24.947Z,26.58
2023-01-06T15:13:52.287Z,26.28
2023-01-06T15:16:21.512Z,26.14
2023-01-06T15:18:49.181Z,26.00
2023-01-06T15:21:18.023Z,25.17
2023-01-06T15:23:47.618Z,25.00
2023-01-06T15:26:21.264Z,24.84
2023-01-06T15:29:02.456Z,24.49
2023-01-06T15:31:37.435Z,24.02
2023-01-06T15:34:33.820Z,24.05
2023-01-06T15:37:01.690Z,23.68
2023-01-06T15:39:30.656Z,23.63
2023-01-06T15:41:58.967Z,23.50
2023-01-06T15:44:30.345Z,23.36
2023-01-06T15:47:06.615Z,22.59
2023-01-06T15:49:35.415Z,22.27
2023-01-06T15:52:07.329Z,22.42
2023-01-06T15:54:38.393Z,22.42
2023-01-06T15:57:16.575Z,22.24
2023-01-06T15:59:53.128Z,21.95
2023-01-06T16:02:23.262Z,21.57
2023-01-06T16:04:52.905Z,21.20
2023-01-06T16:07:40.143Z,20.90
2023-01-06T16:10:25.918Z,20.97
2023-01-06T16:13:04.854Z,20.95
2023-01-06T16:15:35.576Z,21.10
2023-01-06T16:18:02.591Z,20.90
2023-01-06T16:20:29.543Z,20.93
2023-01-06T16:22:56.695Z,20.91
2023-01-06T16:25:34.229Z,20.80
2023-01-06T16:28:03.528Z,20.84
2023-01-06T16:30:31.321Z,20.82
2023-01-06T16:33:00.467Z,20.83
2023-01-06T16:35:34.244Z,20.69
2023-01-06T16:38:01.550Z,20.69
2023-01-06T16:40:29.035Z,20.58
2023-01-06T16:43:00.576Z,20.57
2023-01-06T16:45:41.080Z,20.51
2023-01-06T16:48:09.732Z,20.45
2023-01-06T16:50:37.140Z,20.40
2023-01-06T16:53:10.289Z,20.37
2023-01-06T16:55:39.815Z,20.29
2023-01-06T16:58:18.018Z,20.08
2023-01-06T17:00:51.654Z,20.06
2023-01-06T17:03:26.034Z,20.06
2023-01-06T17:05:53.192Z,20.13
2023-01-06T17:08:30.521Z,20.00
2023-01-06T17:11:00.027Z,19.95
2023-01-06T17:13:36.155Z,19.97
2023-01-06T17:16:17.041Z,19.99
2023-01-06T17:18:48.490Z,19.81
2023-01-06T17:21:19.337Z,19.86
2023-01-06T17:23:55.362Z,19.81
2023-01-06T17:26:24.343Z,19.77
2023-01-06T17:28:52.804Z,19.50
2023-01-06T17:31:27.404Z,19.33
2023-01-06T17:33:56.446Z,19.33
2023-01-06T17:36:31.459Z,19.21
2023-01-06T17:38:58.542Z,19.23
2023-01-06T17:41:26.440Z,18.88
2023-01-06T17:43:53.555Z,19.08
2023-01-06T17:46:29.245Z,19.15
2023-01-06T17:49:19.989Z,18.98
2023-01-06T17:51:47.404Z,19.15
2023-01-06T17:54:40.676Z,19.10
2023-01-06T17:57:13.092Z,19.04
2023-01-06T17:59:43.249Z,19.06
2023-01-06T18:02:19.442Z,19.09
2023-01-06T18:04:46.925Z,19.12
2023-01-06T18:07:14.000Z,18.95
2023-01-06T18:09:48.644Z,18.91
2023-01-06T18:12:18.492Z,18.91
2023-01-06T18:14:46.668Z,18.90
2023-01-06T18:17:16.649Z,18.85
2023-01-06T18:19:43.591Z,18.81
2023-01-06T18:22:17.012Z,18.78
2023-01-06T18:24:44.298Z,18.73
2023-01-06T18:27:28.261Z,18.68
2023-01-06T18:30:12.203Z,18.68
2023-01-06T18:32:41.284Z,18.67
2023-01-06T18:35:15.399Z,18.66
2023-01-06T18:37:42.442Z,18.59
2023-01-06T18:40:16.371Z,18.55
2023-01-06T18:42:44.748Z,18.44
2023-01-06T18:45:12.210Z,18.47
2023-01-06T18:47:40.998Z,18.47
2023-01-06T18:50:23.055Z,18.49
2023-01-06T18:52:50.869Z,18.44
2023-01-06T18:55:23.028Z,18.29
2023-01-06T18:57:54.660Z,18.33
2023-01-06T19:00:31.950Z,18.23
2023-01-06T19:03:12.809Z,18.23
2023-01-06T19:05:39.901Z,18.18
2023-01-06T19:08:12.100Z,18.14
2023-01-06T19:10:39.843Z,18.08
2023-01-06T19:13:12.941Z,18.06
2023-01-06T19:15:39.936Z,18.05
2023-01-06T19:18:11.735Z,17.98
2023-01-06T19:20:39.248Z,17.92
2023-01-06T19:23:15.651Z,17.90
2023-01-06T19:25:48.617Z,17.93
2023-01-06T19:28:20.153Z,17.89
2023-01-06T19:30:57.985Z,17.81
2023-01-06T19:33:26.789Z,17.78
2023-01-06T19:36:04.759Z,17.74
2023-01-06T19:38:39.970Z,17.71
2023-01-06T19:41:15.933Z,17.68
2023-01-06T19:43:44.432Z,17.60
2023-01-06T19:46:18.067Z,17.59
2023-01-06T19:48:45.565Z,17.56
2023-01-06T19:51:12.551Z,17.52
2023-01-06T19:53:42.970Z,17.46
2023-01-06T19:56:29.869Z,17.38
2023-01-06T19:58:58.801Z,17.40
2023-01-06T20:01:26.312Z,17.39
2023-01-06T20:03:56.307Z,17.32
2023-01-06T20:06:26.014Z,17.29
2023-01-06T20:08:53.884Z,17.27
2023-01-06T20:11:24.880Z,17.21
2023-01-06T20:13:52.459Z,17.20
2023-01-06T20:16:19.472Z,17.14
2023-01-06T20:18:46.567Z,17.11
2023-01-06T20:21:13.674Z,17.09
2023-01-06T20:23:40.619Z,17.07
2023-01-06T20:26:07.643Z,17.07
2023-01-06T20:28:34.649Z,16.99
2023-01-06T20:31:01.863Z,17.01
2023-01-06T20:33:28.890Z,16.94
2023-01-06T20:35:58.451Z,16.90
2023-01-06T20:38:25.567Z,16.87
2023-01-06T20:40:55.448Z,16.81
2023-01-06T20:43:22.490Z,16.80
2023-01-06T20:45:52.115Z,16.77
2023-01-06T20:48:19.156Z,16.71
2023-01-06T20:50:46.049Z,16.69
2023-01-06T20:53:13.033Z,16.65
2023-01-06T20:55:40.075Z,16.58
2023-01-06T20:58:06.998Z,16.51
2023-01-06T21:00:37.093Z,16.54
2023-01-06T21:03:05.114Z,16.43
2023-01-06T21:05:32.202Z,16.43
2023-01-06T21:07:59.300Z,16.44
2023-01-06T21:10:26.933Z,16.39
2023-01-06T21:12:55.149Z,16.31
2023-01-06T21:15:22.119Z,16.28
2023-01-06T21:17:49.080Z,16.21
2023-01-06T21:20:16.128Z,16.11
2023-01-06T21:22:43.154Z,16.09
2023-01-06T21:25:10.300Z,16.04
2023-01-06T21:27:37.305Z,15.98
2023-01-06T21:30:04.864Z,15.98
2023-01-06T21:32:31.825Z,15.88
2023-01-06T21:34:58.975Z,15.87
2023-01-06T21:37:26.187Z,15.85
2023-01-06T21:39:53.313Z,15.83
2023-01-06T21:42:38.794Z,15.78
2023-01-06T21:45:06.181Z,15.77
2023-01-06T21:47:34.706Z,15.79
2023-01-06T21:50:02.370Z,15.73
2023-01-06T21:52:29.390Z,15.74
2023-01-06T21:55:01.636Z,15.72
2023-01-06T21:57:29.509Z,15.58
2023-01-06T21:59:57.578Z,15.62
2023-01-06T22:02:25.416Z,15.59
2023-01-06T22:04:52.623Z,15.54
2023-01-06T22:07:21.272Z,15.56
2023-01-06T22:09:48.685Z,15.56
2023-01-06T22:12:17.533Z,15.49
2023-01-06T22:14:50.756Z,15.49
2023-01-06T22:17:18.575Z,15.49
2023-01-06T22:19:50.242Z,15.49
2023-01-06T22:22:24.714Z,15.45
2023-01-06T22:24:53.610Z,15.43
2023-01-06T22:27:20.569Z,15.40
2023-01-06T22:29:47.557Z,15.36
2023-01-06T22:32:14.475Z,15.32
2023-01-06T22:34:41.515Z,15.30
2023-01-06T22:37:08.447Z,15.33
2023-01-06T22:39:35.335Z,15.30
2023-01-06T22:42:02.373Z,15.21
2023-01-06T22:44:29.370Z,15.10
2023-01-06T22:46:56.270Z,15.11
2023-01-06T22:49:23.197Z,15.08
2023-01-06T22:51:53.332Z,15.06
2023-01-06T22:54:22.921Z,15.00
2023-01-06T22:56:49.834Z,15.02
2023-01-06T22:59:16.928Z,14.96
2023-01-06T23:01:43.985Z,14.96
2023-01-06T23:04:11.003Z,14.97
2023-01-06T23:06:38.875Z,14.91
2023-01-06T23:09:06.350Z,14.90
2023-01-06T23:11:34.848Z,14.90
2023-01-06T23:14:04.716Z,14.82
2023-01-06T23:16:32.003Z,14.85
2023-01-06T23:18:58.913Z,14.78
2023-01-06T23:21:26.974Z,14.82
2023-01-06T23:23:54.360Z,14.81
2023-01-06T23:26:27.599Z,14.76
2023-01-06T23:28:55.182Z,14.73
2023-01-06T23:31:25.555Z,14.71
2023-01-06T23:33:56.018Z,14.67
2023-01-06T23:36:24.077Z,14.65
2023-01-06T23:38:51.365Z,14.59
2023-01-06T23:41:19.458Z,14.57
2023-01-06T23:43:46.893Z,14.47
2023-01-06T23:46:15.422Z,14.51
2023-01-06T23:48:42.410Z,14.48
2023-01-06T23:51:09.952Z,14.49
2023-01-06T23:53:37.753Z,14.46
2023-01-06T23:56:06.438Z,14.42
2023-01-06T23:58:39.873Z,14.42
